createdAt,value
2022-11-30T00:01:01.548Z,11.40
2022-11-30T00:03:32.288Z,11.80
2022-11-30T00:06:08.914Z,10.60
2022-11-30T00:08:39.660Z,10.80
2022-11-30T00:11:17.743Z,11.70
2022-11-30T00:13:48.529Z,8.80
2022-11-30T00:16:19.295Z,9.60
2022-11-30T00:18:50.392Z,11.80
2022-11-30T00:21:21.233Z,11.60
2022-11-30T00:23:51.989Z,11.60
2022-11-30T00:26:23.325Z,10.90
2022-11-30T00:28:54.322Z,11.80
2022-11-30T00:31:24.955Z,10.00
2022-11-30T00:33:55.758Z,8.00
2022-11-30T00:36:26.420Z,11.20
2022-11-30T00:38:57.058Z,11.00
2022-11-30T00:41:27.699Z,7.90
2022-11-30T00:43:58.345Z,10.90
2022-11-30T00:46:28.954Z,9.60
2022-11-30T00:48:59.761Z,10.80
2022-11-30T00:51:30.479Z,10.30
2022-11-30T00:54:01.127Z,9.90
2022-11-30T00:56:31.823Z,12.20
2022-11-30T00:59:02.491Z,12.40
2022-11-30T01:01:33.161Z,10.70
2022-11-30T01:04:04.516Z,12.90
2022-11-30T01:06:35.172Z,11.50
2022-11-30T01:09:06.546Z,9.60
2022-11-30T01:11:37.298Z,9.40
2022-11-30T01:14:08.109Z,9.70
2022-11-30T01:16:38.996Z,11.10
2022-11-30T01:19:09.721Z,10.60
2022-11-30T01:21:41.096Z,10.90
2022-11-30T01:24:13.242Z,5.80
2022-11-30T01:26:43.806Z,11.00
2022-11-30T01:29:14.437Z,10.60
2022-11-30T01:31:45.068Z,11.50
2022-11-30T01:34:15.848Z,11.30
2022-11-30T01:36:48.624Z,9.70
2022-11-30T01:39:19.409Z,11.00
2022-11-30T01:41:50.118Z,12.00
2022-11-30T01:44:52.910Z,11.30
2022-11-30T01:47:29.584Z,10.50
2022-11-30T01:50:06.005Z,11.60
2022-11-30T01:52:39.765Z,10.60
2022-11-30T01:55:19.875Z,10.60
2022-11-30T01:57:52.673Z,11.80
2022-11-30T02:00:24.444Z,10.90
2022-11-30T02:03:01.541Z,12.30
2022-11-30T02:05:32.644Z,10.30
2022-11-30T02:08:03.900Z,10.40
2022-11-30T02:10:38.221Z,9.90
2022-11-30T02:13:35.928Z,10.30
2022-11-30T02:16:18.756Z,10.70
2022-11-30T02:19:00.761Z,10.90
2022-11-30T02:21:41.601Z,10.20
2022-11-30T02:24:36.375Z,10.80
2022-11-30T02:27:16.138Z,11.40
2022-11-30T02:29:50.773Z,10.50
2022-11-30T02:32:26.969Z,10.70
2022-11-30T02:34:59.673Z,10.20
2022-11-30T02:37:31.174Z,10.80
2022-11-30T02:40:02.473Z,9.80
2022-11-30T02:42:33.124Z,3.90
2022-11-30T02:45:04.260Z,9.80
2022-11-30T02:47:41.911Z,9.90
2022-11-30T02:50:16.586Z,10.00
2022-11-30T02:52:48.039Z,10.80
2022-11-30T02:55:20.912Z,10.70
2022-11-30T02:57:51.646Z,10.40
2022-11-30T03:00:23.572Z,10.40
2022-11-30T03:02:55.087Z,8.30
2022-11-30T03:05:25.835Z,10.20
2022-11-30T03:07:56.639Z,8.70
2022-11-30T03:10:27.394Z,6.50
2022-11-30T03:13:01.452Z,10.70
2022-11-30T03:15:32.164Z,10.80
2022-11-30T03:18:05.996Z,8.70
2022-11-30T03:20:36.605Z,9.60
2022-11-30T03:23:07.168Z,8.60
2022-11-30T03:25:37.779Z,10.60
2022-11-30T03:28:08.533Z,10.50
2022-11-30T03:30:39.138Z,9.80
2022-11-30T03:33:09.848Z,9.40
2022-11-30T03:35:40.601Z,11.10
2022-11-30T03:38:11.682Z,10.80
2022-11-30T03:40:42.371Z,5.90
2022-11-30T03:43:13.184Z,10.20
2022-11-30T03:45:47.657Z,10.70
2022-11-30T03:48:18.272Z,11.70
2022-11-30T03:50:50.225Z,10.60
2022-11-30T03:53:22.305Z,10.40
2022-11-30T03:55:56.971Z,10.10
2022-11-30T03:58:28.099Z,9.70
2022-11-30T04:01:04.175Z,11.40
2022-11-30T04:03:35.365Z,12.30
2022-11-30T04:06:07.964Z,12.70
2022-11-30T04:08:39.239Z,12.50
2022-11-30T04:11:10.729Z,12.60
2022-11-30T04:13:44.269Z,10.90
2022-11-30T04:16:14.937Z,10.70
2022-11-30T04:18:45.733Z,11.80
2022-11-30T04:21:16.354Z,12.10
2022-11-30T04:23:47.090Z,12.50
2022-11-30T04:26:18.990Z,13.20
2022-11-30T04:28:49.669Z,11.50
2022-11-30T04:31:20.354Z,10.80
2022-11-30T04:33:53.568Z,11.20
2022-11-30T04:36:24.241Z,10.50
2022-11-30T04:38:54.839Z,11.30
2022-11-30T04:41:25.581Z,9.60
2022-11-30T04:43:56.597Z,11.30
2022-11-30T04:46:27.452Z,11.70
2022-11-30T04:48:58.290Z,11.50
2022-11-30T04:51:28.911Z,12.70
2022-11-30T04:53:59.612Z,12.20
2022-11-30T04:56:38.635Z,12.10
2022-11-30T05:01:41.637Z,10.80
2022-11-30T05:04:12.280Z,11.40
2022-11-30T05:06:43.088Z,12.10
2022-11-30T05:09:13.758Z,11.80
2022-11-30T05:11:44.358Z,12.40
2022-11-30T05:14:15.194Z,11.40
2022-11-30T05:16:47.909Z,12.50
2022-11-30T05:19:18.576Z,11.20
2022-11-30T05:21:49.177Z,11.20
2022-11-30T05:24:19.922Z,12.40
2022-11-30T05:26:50.686Z,11.90
2022-11-30T05:29:21.349Z,15.30
2022-11-30T05:31:52.050Z,12.40
2022-11-30T05:34:22.707Z,13.10
2022-11-30T05:36:53.534Z,12.50
2022-11-30T05:39:24.101Z,12.40
2022-11-30T05:41:55.074Z,12.40
2022-11-30T05:44:25.803Z,13.70
2022-11-30T05:46:56.815Z,11.30
2022-11-30T05:49:27.614Z,12.10
2022-11-30T05:51:58.274Z,12.90
2022-11-30T05:54:28.976Z,12.00
2022-11-30T05:56:59.615Z,12.60
2022-11-30T05:59:30.283Z,12.70
2022-11-30T06:02:00.994Z,12.30
2022-11-30T06:04:32.115Z,12.20
2022-11-30T06:07:03.005Z,11.30
2022-11-30T06:09:33.606Z,10.50
2022-11-30T06:12:04.322Z,10.50
2022-11-30T06:14:35.063Z,10.40
2022-11-30T06:17:05.894Z,7.70
2022-11-30T06:19:36.902Z,10.40
2022-11-30T06:22:07.520Z,9.50
2022-11-30T06:24:38.161Z,10.70
2022-11-30T06:27:08.727Z,11.10
2022-11-30T06:29:39.407Z,8.10
2022-11-30T06:32:10.769Z,11.20
2022-11-30T06:34:41.491Z,8.00
2022-11-30T06:37:12.278Z,11.30
2022-11-30T06:40:05.569Z,11.70
2022-11-30T06:42:33.931Z,10.80
2022-11-30T06:45:05.476Z,10.60
2022-11-30T06:47:36.169Z,9.60
2022-11-30T06:50:09.700Z,9.60
2022-11-30T06:52:40.394Z,8.10
2022-11-30T06:55:11.936Z,9.90
2022-11-30T06:57:42.828Z,9.10
2022-11-30T07:00:15.637Z,12.90
2022-11-30T07:02:46.484Z,13.70
2022-11-30T07:05:17.312Z,12.70
2022-11-30T07:07:48.609Z,13.00
2022-11-30T07:10:20.366Z,12.20
2022-11-30T07:12:51.550Z,8.50
2022-11-30T07:15:22.208Z,10.90
2022-11-30T07:17:52.911Z,10.50
2022-11-30T07:20:23.586Z,10.90
2022-11-30T07:22:57.784Z,10.50
2022-11-30T07:25:45.955Z,8.70
2022-11-30T07:28:16.597Z,10.60
2022-11-30T07:30:47.420Z,9.70
2022-11-30T07:33:18.060Z,10.70
2022-11-30T07:35:48.694Z,7.80
2022-11-30T07:38:19.340Z,9.90
2022-11-30T07:40:50.023Z,11.30
2022-11-30T07:43:20.578Z,9.10
2022-11-30T07:45:56.219Z,9.70
2022-11-30T07:48:27.112Z,9.80
2022-11-30T07:51:02.511Z,10.40
2022-11-30T07:53:33.129Z,11.50
2022-11-30T07:56:09.984Z,10.20
2022-11-30T07:58:41.625Z,9.50
2022-11-30T08:01:15.123Z,8.60
2022-11-30T08:03:46.217Z,10.60
2022-11-30T08:06:20.119Z,8.00
2022-11-30T08:08:52.615Z,10.40
2022-11-30T08:11:25.274Z,11.90
2022-11-30T08:13:56.296Z,10.50
2022-11-30T08:16:29.181Z,8.60
2022-11-30T08:21:29.471Z,9.70
2022-11-30T08:24:00.220Z,10.20
2022-11-30T08:26:32.894Z,11.00
2022-11-30T08:29:03.873Z,9.20
2022-11-30T08:31:37.355Z,10.00
2022-11-30T08:34:10.652Z,8.20
2022-11-30T08:36:43.398Z,10.70
2022-11-30T08:39:15.608Z,8.90
2022-11-30T08:41:46.330Z,8.20
2022-11-30T08:44:16.926Z,9.80
2022-11-30T08:49:38.512Z,8.90
2022-11-30T08:52:18.166Z,8.50
2022-11-30T08:54:50.618Z,9.10
2022-11-30T08:57:22.811Z,9.70
2022-11-30T08:59:53.505Z,8.80
2022-11-30T09:02:24.426Z,8.70
2022-11-30T09:04:55.179Z,4.60
2022-11-30T09:07:25.957Z,9.90
2022-11-30T09:09:56.860Z,10.60
2022-11-30T09:12:27.575Z,11.40
2022-11-30T09:14:58.853Z,7.70
2022-11-30T09:17:30.059Z,9.70
2022-11-30T09:20:02.446Z,10.90
2022-11-30T09:22:33.312Z,7.30
2022-11-30T09:25:03.963Z,10.00
2022-11-30T09:27:35.832Z,9.00
2022-11-30T09:30:08.688Z,8.20
2022-11-30T09:32:39.537Z,10.40
2022-11-30T09:35:12.903Z,8.90
2022-11-30T09:37:43.959Z,10.10
2022-11-30T09:40:16.677Z,4.90
2022-11-30T09:42:58.685Z,8.80
2022-11-30T09:45:32.838Z,7.80
2022-11-30T09:48:26.472Z,4.90
2022-11-30T09:51:01.111Z,9.30
2022-11-30T09:53:39.608Z,8.80
2022-11-30T09:56:20.942Z,9.80
2022-11-30T09:58:57.423Z,8.60
2022-11-30T10:01:32.000Z,9.80
2022-11-30T10:04:03.877Z,9.70
2022-11-30T10:06:44.229Z,8.80
2022-11-30T10:09:30.768Z,9.40
2022-11-30T10:12:07.101Z,10.10
2022-11-30T10:15:06.676Z,9.20
2022-11-30T10:17:44.275Z,9.50
2022-11-30T10:20:28.007Z,10.10
2022-11-30T10:23:11.923Z,9.80
2022-11-30T10:25:52.336Z,9.90
2022-11-30T10:31:21.423Z,9.20
2022-11-30T10:33:53.726Z,9.10
2022-11-30T10:36:31.042Z,10.80
2022-11-30T10:39:04.512Z,7.80
2022-11-30T10:41:44.645Z,9.60
2022-11-30T10:44:23.119Z,8.50
2022-11-30T10:47:00.656Z,9.80
2022-11-30T10:49:33.963Z,10.20
2022-11-30T10:52:09.715Z,8.10
2022-11-30T10:54:40.473Z,6.60
2022-11-30T10:57:14.508Z,8.20
2022-11-30T10:59:49.167Z,9.30
2022-11-30T11:02:45.765Z,9.10
2022-11-30T11:05:23.795Z,10.20
2022-11-30T11:08:04.375Z,9.20
2022-11-30T11:10:46.884Z,7.50
2022-11-30T11:13:21.687Z,7.40
2022-11-30T11:16:01.812Z,8.50
2022-11-30T11:18:33.854Z,8.90
2022-11-30T11:21:08.009Z,8.70
2022-11-30T11:23:41.669Z,6.80
2022-11-30T11:26:21.438Z,7.90
2022-11-30T11:28:53.694Z,8.60
2022-11-30T11:31:37.371Z,10.10
2022-11-30T11:34:24.855Z,8.60
2022-11-30T11:37:08.090Z,9.00
2022-11-30T11:39:38.688Z,8.80
2022-11-30T11:42:22.746Z,8.90
2022-11-30T11:44:56.902Z,6.70
2022-11-30T11:47:30.094Z,9.20
2022-11-30T11:50:58.308Z,8.10
2022-11-30T11:53:25.755Z,9.00
2022-11-30T11:56:01.022Z,7.70
2022-11-30T11:58:43.247Z,9.40
2022-11-30T12:04:41.185Z,9.50
2022-11-30T12:07:22.166Z,9.80
2022-11-30T12:10:09.601Z,9.10
2022-11-30T12:12:55.098Z,8.80
2022-11-30T12:15:33.482Z,8.60
2022-11-30T12:18:23.594Z,8.80
2022-11-30T12:21:01.661Z,9.40
2022-11-30T12:23:56.368Z,10.40
2022-11-30T12:26:35.776Z,8.60
2022-11-30T12:29:24.598Z,8.30
2022-11-30T12:32:12.079Z,10.50
2022-11-30T12:34:57.421Z,9.20
2022-11-30T12:37:37.480Z,9.00
2022-11-30T12:40:27.607Z,11.00
2022-11-30T12:43:08.221Z,9.30
2022-11-30T12:45:43.621Z,9.90
2022-11-30T12:48:26.639Z,9.40
2022-11-30T12:51:12.194Z,9.10
2022-11-30T12:53:49.817Z,9.50
2022-11-30T12:56:31.835Z,9.60
2022-11-30T12:59:15.592Z,9.40
2022-11-30T13:02:09.978Z,10.50
2022-11-30T13:04:45.262Z,10.50
2022-11-30T13:07:26.839Z,10.40
2022-11-30T13:10:04.068Z,9.70
2022-11-30T13:12:38.369Z,10.80
2022-11-30T13:15:15.901Z,10.70
2022-11-30T13:17:48.080Z,6.50
2022-11-30T13:20:24.866Z,11.00
2022-11-30T13:23:00.685Z,10.80
2022-11-30T13:28:41.019Z,8.40
2022-11-30T13:31:18.727Z,8.80
2022-11-30T13:33:57.804Z,8.60
2022-11-30T13:39:29.043Z,8.20
2022-11-30T13:44:47.547Z,7.40
2022-11-30T13:47:28.378Z,7.90
2022-11-30T13:50:00.777Z,9.20
2022-11-30T13:53:02.450Z,8.70
2022-11-30T13:55:53.855Z,8.30
2022-11-30T13:58:24.889Z,7.50
2022-11-30T14:01:30.699Z,8.90
2022-11-30T14:04:31.785Z,8.00
2022-11-30T14:07:02.577Z,7.90
2022-11-30T14:10:01.888Z,7.90
2022-11-30T14:12:48.599Z,8.20
2022-11-30T14:15:46.607Z,9.00
2022-11-30T14:18:26.102Z,9.70
2022-11-30T14:20:59.212Z,9.90
2022-11-30T14:23:34.678Z,8.30
2022-11-30T14:26:11.091Z,8.30
2022-11-30T14:28:51.351Z,9.40
2022-11-30T14:31:25.995Z,9.20
2022-11-30T14:33:59.950Z,9.60
2022-11-30T14:36:41.333Z,7.90
2022-11-30T14:42:22.714Z,9.50
2022-11-30T14:44:53.647Z,10.80
2022-11-30T14:47:29.806Z,11.40
2022-11-30T14:50:02.986Z,10.50
2022-11-30T14:52:59.760Z,10.40
2022-11-30T14:55:37.279Z,9.80
2022-11-30T14:58:19.143Z,9.40
2022-11-30T15:00:51.050Z,10.30
2022-11-30T15:03:27.244Z,10.20
2022-11-30T15:06:00.442Z,6.70
2022-11-30T15:08:39.401Z,10.20
2022-11-30T15:11:13.007Z,9.90
2022-11-30T15:13:46.208Z,9.60
2022-11-30T15:16:22.777Z,10.00
2022-11-30T15:18:55.490Z,11.10
2022-11-30T15:21:28.811Z,11.00
2022-11-30T15:24:00.811Z,11.10
2022-11-30T15:26:37.807Z,10.60
2022-11-30T15:29:13.916Z,12.20
2022-11-30T15:31:47.081Z,10.20
2022-11-30T15:34:23.126Z,10.70
2022-11-30T15:36:56.771Z,9.80
2022-11-30T15:39:30.348Z,10.10
2022-11-30T15:42:02.746Z,10.90
2022-11-30T15:44:45.453Z,11.40
2022-11-30T15:47:32.880Z,11.10
2022-11-30T15:50:04.455Z,10.50
2022-11-30T15:52:36.384Z,10.90
2022-11-30T15:55:29.913Z,9.30
2022-11-30T15:58:03.255Z,10.20
2022-11-30T16:00:33.998Z,10.20
2022-11-30T16:03:13.209Z,9.50
2022-11-30T16:05:58.353Z,10.30
2022-11-30T16:08:29.469Z,8.90
2022-11-30T16:11:06.186Z,9.20
2022-11-30T16:13:38.498Z,8.90
2022-11-30T16:16:14.083Z,9.70
2022-11-30T16:18:44.906Z,10.90
2022-11-30T16:21:17.684Z,10.10
2022-11-30T16:23:49.181Z,10.50
2022-11-30T16:26:49.527Z,10.80
2022-11-30T16:29:11.821Z,9.70
2022-11-30T16:31:42.630Z,11.10
2022-11-30T16:34:14.119Z,10.10
2022-11-30T16:36:44.939Z,9.50
2022-11-30T16:39:15.573Z,8.10
2022-11-30T16:41:46.333Z,8.90
2022-11-30T16:44:17.466Z,9.80
2022-11-30T16:46:48.761Z,9.40
2022-11-30T16:49:19.424Z,9.80
2022-11-30T16:51:50.126Z,8.50
2022-11-30T16:54:20.933Z,12.20
2022-11-30T16:56:51.703Z,10.70
2022-11-30T16:59:22.465Z,9.40
2022-11-30T17:01:53.867Z,9.30
2022-11-30T17:04:27.006Z,9.50
2022-11-30T17:07:02.736Z,9.40
2022-11-30T17:09:34.715Z,9.80
2022-11-30T17:12:05.667Z,9.60
2022-11-30T17:14:36.338Z,9.50
2022-11-30T17:17:07.159Z,10.00
2022-11-30T17:19:38.832Z,9.70
2022-11-30T17:22:09.459Z,10.80
2022-11-30T17:24:40.098Z,9.90
2022-11-30T17:27:12.058Z,7.20
2022-11-30T17:29:43.773Z,9.20
2022-11-30T17:32:14.694Z,9.00
2022-11-30T17:34:45.605Z,10.80
2022-11-30T17:37:16.959Z,8.50
2022-11-30T17:39:47.738Z,11.00
2022-11-30T17:42:18.449Z,10.90
2022-11-30T17:44:49.570Z,13.00
2022-11-30T17:47:22.184Z,10.20
2022-11-30T17:49:53.394Z,12.30
2022-11-30T17:52:24.028Z,12.80
2022-11-30T17:54:54.711Z,12.40
2022-11-30T17:57:25.417Z,12.60
2022-11-30T17:59:56.234Z,15.70
2022-11-30T18:02:26.969Z,14.70
2022-11-30T18:04:58.348Z,15.90
2022-11-30T18:07:32.940Z,16.80
2022-11-30T18:10:08.730Z,12.50
2022-11-30T18:12:39.734Z,15.60
2022-11-30T18:15:12.059Z,17.70
2022-11-30T18:17:42.724Z,14.80
2022-11-30T18:20:15.057Z,18.70
2022-11-30T18:22:45.828Z,17.00
2022-11-30T18:25:31.223Z,18.10
2022-11-30T18:28:08.486Z,17.20
2022-11-30T18:30:40.977Z,11.40
2022-11-30T18:33:11.838Z,18.70
2022-11-30T18:35:42.511Z,10.60
2022-11-30T18:38:13.620Z,15.00
2022-11-30T18:40:44.813Z,15.60
2022-11-30T18:43:15.777Z,20.60
2022-11-30T18:45:46.535Z,14.40
2022-11-30T18:48:17.423Z,13.70
2022-11-30T18:50:48.261Z,17.30
2022-11-30T18:53:19.302Z,16.90
2022-11-30T18:55:50.002Z,18.50
2022-11-30T18:58:20.734Z,19.20
2022-11-30T19:00:51.557Z,17.20
2022-11-30T19:03:22.510Z,15.20
2022-11-30T19:05:53.310Z,16.50
2022-11-30T19:08:23.975Z,14.50
2022-11-30T19:10:54.660Z,19.20
2022-11-30T19:13:25.454Z,17.60
2022-11-30T19:15:56.234Z,20.70
2022-11-30T19:18:27.075Z,20.50
2022-11-30T19:20:57.827Z,19.90
2022-11-30T19:23:28.646Z,18.60
2022-11-30T19:26:03.514Z,18.20
2022-11-30T19:28:36.573Z,19.00
2022-11-30T19:31:11.734Z,19.40
2022-11-30T19:33:44.315Z,14.80
2022-11-30T19:36:17.037Z,18.10
2022-11-30T19:38:47.906Z,14.40
2022-11-30T19:41:19.581Z,14.00
2022-11-30T19:43:59.594Z,13.70
2022-11-30T19:46:34.617Z,16.10
2022-11-30T19:49:08.025Z,17.40
2022-11-30T19:54:07.978Z,12.20
2022-11-30T19:56:41.159Z,13.80
2022-11-30T19:59:12.073Z,15.60
2022-11-30T20:01:43.015Z,17.00
2022-11-30T20:04:14.310Z,16.30
2022-11-30T20:06:44.986Z,16.00
2022-11-30T20:09:15.750Z,17.20
2022-11-30T20:11:46.385Z,16.10
2022-11-30T20:14:19.711Z,16.70
2022-11-30T20:16:52.834Z,13.00
2022-11-30T20:21:52.973Z,15.70
2022-11-30T20:24:23.763Z,11.60
2022-11-30T20:26:54.617Z,16.70
2022-11-30T20:29:28.898Z,11.90
2022-11-30T20:32:00.224Z,11.90
2022-11-30T20:34:34.621Z,15.70
2022-11-30T20:37:06.782Z,14.60
2022-11-30T20:39:42.529Z,15.10
2022-11-30T20:42:16.432Z,10.00
2022-11-30T20:44:47.743Z,8.90
2022-11-30T20:47:18.779Z,9.00
2022-11-30T20:49:49.990Z,11.50
2022-11-30T20:52:21.082Z,10.20
2022-11-30T20:54:51.828Z,10.40
2022-11-30T20:57:22.453Z,13.50
2022-11-30T20:59:53.324Z,14.10
2022-11-30T21:02:24.271Z,12.60
2022-11-30T21:04:55.096Z,10.80
2022-11-30T21:07:25.887Z,11.30
2022-11-30T21:09:56.656Z,11.30
2022-11-30T21:12:27.303Z,14.80
2022-11-30T21:14:58.007Z,12.70
2022-11-30T21:17:28.839Z,12.70
2022-11-30T21:20:00.650Z,11.40
2022-11-30T21:22:34.711Z,12.10
2022-11-30T21:25:06.093Z,11.70
2022-11-30T21:27:36.854Z,15.30
2022-11-30T21:30:09.953Z,13.30
2022-11-30T21:35:11.432Z,5.40
2022-11-30T21:37:42.061Z,12.20
2022-11-30T21:40:14.602Z,13.50
2022-11-30T21:42:45.341Z,13.50
2022-11-30T21:45:16.110Z,11.80
2022-11-30T21:47:46.803Z,12.80
2022-11-30T21:50:19.887Z,13.10
2022-11-30T21:52:52.596Z,13.80
2022-11-30T21:55:23.168Z,13.50
2022-11-30T21:57:56.246Z,13.40
2022-11-30T22:02:56.485Z,7.50
2022-11-30T22:05:27.124Z,12.50
2022-11-30T22:07:58.043Z,10.90
2022-11-30T22:10:28.798Z,12.00
2022-11-30T22:12:59.399Z,13.20
2022-11-30T22:15:40.411Z,13.10
2022-11-30T22:25:41.506Z,13.30
2022-11-30T22:28:19.403Z,13.90
2022-11-30T22:28:35.933Z,11.10
2022-11-30T22:31:33.129Z,7.90
2022-11-30T22:40:14.961Z,9.70
2022-11-30T22:42:45.729Z,12.70
2022-11-30T22:45:16.757Z,8.50
2022-11-30T22:47:47.427Z,10.00
2022-11-30T22:50:18.275Z,12.40
2022-11-30T22:53:02.945Z,12.10
2022-11-30T22:58:04.667Z,11.10
2022-11-30T23:00:35.274Z,13.10
2022-11-30T23:03:06.320Z,11.70
2022-11-30T23:05:38.338Z,10.70
2022-11-30T23:08:09.407Z,7.70
2022-11-30T23:10:40.323Z,12.80
2022-11-30T23:13:11.099Z,10.30
2022-11-30T23:15:41.765Z,13.70
2022-11-30T23:18:12.558Z,10.10
2022-11-30T23:20:43.149Z,12.80
2022-11-30T23:23:13.823Z,12.70
2022-11-30T23:25:44.776Z,11.50
2022-11-30T23:28:15.526Z,12.80
2022-11-30T23:30:46.200Z,10.80
2022-11-30T23:33:16.936Z,13.90
2022-11-30T23:35:47.494Z,12.10
2022-11-30T23:38:18.070Z,6.80
2022-11-30T23:40:48.682Z,11.90
2022-11-30T23:43:19.353Z,12.60
2022-11-30T23:45:50.054Z,12.30
2022-11-30T23:48:20.690Z,11.40
2022-11-30T23:50:51.291Z,10.50
2022-11-30T23:53:22.567Z,12.80
2022-11-30T23:55:53.620Z,11.60
2022-11-30T23:58:25.339Z,11.80
